sensor_id;sensor_type;location;lat;lon;timestamp;P1;durP1;ratioP1;P2;durP2;ratioP2
54993;SDS011;40891;47.242;8.648;2022-11-15T00:01:20;3.63;;;2.47;;
54993;SDS011;40891;47.242;8.648;2022-11-15T00:03:45;5.10;;;2.50;;
54993;SDS011;40891;47.242;8.648;2022-11-15T00:06:11;6.43;;;2.43;;
54993;SDS011;40891;47.242;8.648;2022-11-15T00:08:37;6.10;;;2.57;;
54993;SDS011;40891;47.242;8.648;2022-11-15T00:11:02;4.03;;;2.33;;
54993;SDS011;40891;47.242;8.648;2022-11-15T00:13:28;4.63;;;2.73;;
54993;SDS011;40891;47.242;8.648;2022-11-15T00:15:58;2.77;;;2.17;;
54993;SDS011;40891;47.242;8.648;2022-11-15T00:18:25;3.90;;;2.80;;
54993;SDS011;40891;47.242;8.648;2022-11-15T00:20:50;6.07;;;2.43;;
54993;SDS011;40891;47.242;8.648;2022-11-15T00:23:16;4.23;;;2.53;;
54993;SDS011;40891;47.242;8.648;2022-11-15T00:25:41;4.33;;;2.50;;
54993;SDS011;40891;47.242;8.648;2022-11-15T00:28:07;4.33;;;2.40;;
54993;SDS011;40891;47.242;8.648;2022-11-15T00:30:32;4.03;;;2.40;;
54993;SDS011;40891;47.242;8.648;2022-11-15T00:33:01;6.80;;;2.30;;
54993;SDS011;40891;47.242;8.648;2022-11-15T00:35:28;3.27;;;2.33;;
54993;SDS011;40891;47.242;8.648;2022-11-15T00:37:53;4.47;;;2.43;;
54993;SDS011;40891;47.242;8.648;2022-11-15T00:40:18;4.87;;;2.27;;
54993;SDS011;40891;47.242;8.648;2022-11-15T00:42:44;10.17;;;2.90;;
54993;SDS011;40891;47.242;8.648;2022-11-15T00:45:09;3.80;;;2.50;;
54993;SDS011;40891;47.242;8.648;2022-11-15T00:47:34;3.37;;;2.60;;
54993;SDS011;40891;47.242;8.648;2022-11-15T00:50:00;3.87;;;2.60;;
54993;SDS011;40891;47.242;8.648;2022-11-15T00:52:25;4.70;;;2.63;;
54993;SDS011;40891;47.242;8.648;2022-11-15T00:54:51;5.93;;;3.10;;
54993;SDS011;40891;47.242;8.648;2022-11-15T00:57:16;5.67;;;2.90;;
54993;SDS011;40891;47.242;8.648;2022-11-15T00:59:41;3.87;;;2.70;;
54993;SDS011;40891;47.242;8.648;2022-11-15T01:02:07;4.80;;;2.80;;
54993;SDS011;40891;47.242;8.648;2022-11-15T01:04:32;5.93;;;2.67;;
54993;SDS011;40891;47.242;8.648;2022-11-15T01:06:57;5.13;;;2.70;;
54993;SDS011;40891;47.242;8.648;2022-11-15T01:09:23;4.50;;;2.77;;
54993;SDS011;40891;47.242;8.648;2022-11-15T01:11:48;4.97;;;3.17;;
54993;SDS011;40891;47.242;8.648;2022-11-15T01:14:13;5.60;;;3.20;;
54993;SDS011;40891;47.242;8.648;2022-11-15T01:16:39;8.23;;;2.90;;
54993;SDS011;40891;47.242;8.648;2022-11-15T01:19:04;5.60;;;3.40;;
54993;SDS011;40891;47.242;8.648;2022-11-15T01:21:29;9.07;;;3.27;;
54993;SDS011;40891;47.242;8.648;2022-11-15T01:23:55;4.70;;;3.27;;
54993;SDS011;40891;47.242;8.648;2022-11-15T01:26:22;4.70;;;3.00;;
54993;SDS011;40891;47.242;8.648;2022-11-15T01:28:49;6.33;;;3.27;;
54993;SDS011;40891;47.242;8.648;2022-11-15T01:31:15;6.10;;;3.37;;
54993;SDS011;40891;47.242;8.648;2022-11-15T01:33:42;5.67;;;3.10;;
54993;SDS011;40891;47.242;8.648;2022-11-15T01:36:11;5.13;;;3.50;;
54993;SDS011;40891;47.242;8.648;2022-11-15T01:38:38;6.50;;;3.60;;
54993;SDS011;40891;47.242;8.648;2022-11-15T01:41:04;6.50;;;3.50;;
54993;SDS011;40891;47.242;8.648;2022-11-15T01:43:33;6.03;;;3.57;;
54993;SDS011;40891;47.242;8.648;2022-11-15T01:46:01;6.20;;;3.83;;
54993;SDS011;40891;47.242;8.648;2022-11-15T01:48:34;5.20;;;3.50;;
54993;SDS011;40891;47.242;8.648;2022-11-15T01:51:01;8.47;;;3.53;;
54993;SDS011;40891;47.242;8.648;2022-11-15T01:53:30;5.17;;;3.10;;
54993;SDS011;40891;47.242;8.648;2022-11-15T01:55:57;5.20;;;3.20;;
54993;SDS011;40891;47.242;8.648;2022-11-15T01:58:26;4.60;;;3.40;;
54993;SDS011;40891;47.242;8.648;2022-11-15T02:00:51;5.10;;;3.43;;
54993;SDS011;40891;47.242;8.648;2022-11-15T02:03:17;4.60;;;3.00;;
54993;SDS011;40891;47.242;8.648;2022-11-15T02:05:42;5.90;;;2.93;;
54993;SDS011;40891;47.242;8.648;2022-11-15T02:08:09;3.10;;;2.63;;
54993;SDS011;40891;47.242;8.648;2022-11-15T02:10:44;3.50;;;2.50;;
54993;SDS011;40891;47.242;8.648;2022-11-15T02:13:10;7.43;;;2.90;;
54993;SDS011;40891;47.242;8.648;2022-11-15T02:15:38;6.20;;;2.37;;
54993;SDS011;40891;47.242;8.648;2022-11-15T02:23:34;4.63;;;2.57;;
54993;SDS011;40891;47.242;8.648;2022-11-15T02:29:03;3.93;;;2.53;;
54993;SDS011;40891;47.242;8.648;2022-11-15T02:37:34;6.57;;;2.80;;
54993;SDS011;40891;47.242;8.648;2022-11-15T02:42:45;4.87;;;2.67;;
54993;SDS011;40891;47.242;8.648;2022-11-15T02:45:44;5.40;;;2.50;;
54993;SDS011;40891;47.242;8.648;2022-11-15T02:48:13;5.73;;;2.43;;
54993;SDS011;40891;47.242;8.648;2022-11-15T02:50:40;4.37;;;2.50;;
54993;SDS011;40891;47.242;8.648;2022-11-15T02:53:07;6.07;;;3.27;;
54993;SDS011;40891;47.242;8.648;2022-11-15T02:55:34;2.50;;;2.10;;
54993;SDS011;40891;47.242;8.648;2022-11-15T03:00:47;6.60;;;2.53;;
54993;SDS011;40891;47.242;8.648;2022-11-15T03:11:32;4.60;;;1.87;;
54993;SDS011;40891;47.242;8.648;2022-11-15T03:14:20;3.37;;;2.13;;
54993;SDS011;40891;47.242;8.648;2022-11-15T03:19:49;4.03;;;2.30;;
54993;SDS011;40891;47.242;8.648;2022-11-15T03:22:19;3.97;;;2.00;;
54993;SDS011;40891;47.242;8.648;2022-11-15T03:24:47;4.17;;;2.17;;
54993;SDS011;40891;47.242;8.648;2022-11-15T03:27:19;3.90;;;2.20;;
54993;SDS011;40891;47.242;8.648;2022-11-15T03:29:50;2.50;;;1.87;;
54993;SDS011;40891;47.242;8.648;2022-11-15T03:32:23;5.37;;;2.40;;
54993;SDS011;40891;47.242;8.648;2022-11-15T03:34:56;3.80;;;2.23;;
54993;SDS011;40891;47.242;8.648;2022-11-15T03:37:33;2.73;;;2.10;;
54993;SDS011;40891;47.242;8.648;2022-11-15T03:40:02;5.60;;;2.80;;
54993;SDS011;40891;47.242;8.648;2022-11-15T03:42:43;6.63;;;2.40;;
54993;SDS011;40891;47.242;8.648;2022-11-15T03:50:23;4.30;;;2.13;;
54993;SDS011;40891;47.242;8.648;2022-11-15T03:52:49;4.87;;;2.13;;
54993;SDS011;40891;47.242;8.648;2022-11-15T03:55:17;2.53;;;1.80;;
54993;SDS011;40891;47.242;8.648;2022-11-15T03:57:44;5.10;;;2.13;;
54993;SDS011;40891;47.242;8.648;2022-11-15T04:00:09;6.13;;;2.10;;
54993;SDS011;40891;47.242;8.648;2022-11-15T04:02:35;5.50;;;2.03;;
54993;SDS011;40891;47.242;8.648;2022-11-15T04:05:01;4.77;;;2.20;;
54993;SDS011;40891;47.242;8.648;2022-11-15T04:07:26;2.97;;;1.90;;
54993;SDS011;40891;47.242;8.648;2022-11-15T04:09:51;5.10;;;2.07;;
54993;SDS011;40891;47.242;8.648;2022-11-15T04:12:30;3.53;;;1.97;;
54993;SDS011;40891;47.242;8.648;2022-11-15T04:17:32;4.03;;;1.93;;
54993;SDS011;40891;47.242;8.648;2022-11-15T04:19:57;3.37;;;2.03;;
54993;SDS011;40891;47.242;8.648;2022-11-15T04:22:41;2.13;;;1.73;;
54993;SDS011;40891;47.242;8.648;2022-11-15T04:25:25;4.70;;;2.60;;
54993;SDS011;40891;47.242;8.648;2022-11-15T04:27:50;3.77;;;2.40;;
54993;SDS011;40891;47.242;8.648;2022-11-15T04:30:16;4.10;;;2.90;;
54993;SDS011;40891;47.242;8.648;2022-11-15T04:32:41;4.57;;;2.70;;
54993;SDS011;40891;47.242;8.648;2022-11-15T04:35:06;4.77;;;3.00;;
54993;SDS011;40891;47.242;8.648;2022-11-15T04:37:32;3.13;;;2.63;;
54993;SDS011;40891;47.242;8.648;2022-11-15T04:39:57;4.73;;;2.90;;
54993;SDS011;40891;47.242;8.648;2022-11-15T04:42:23;6.47;;;2.90;;
54993;SDS011;40891;47.242;8.648;2022-11-15T04:44:48;6.07;;;2.97;;
54993;SDS011;40891;47.242;8.648;2022-11-15T04:47:13;4.47;;;2.87;;
54993;SDS011;40891;47.242;8.648;2022-11-15T04:49:39;5.70;;;2.80;;
54993;SDS011;40891;47.242;8.648;2022-11-15T04:52:04;6.10;;;2.70;;
54993;SDS011;40891;47.242;8.648;2022-11-15T04:54:29;4.60;;;2.60;;
54993;SDS011;40891;47.242;8.648;2022-11-15T04:56:55;2.97;;;2.10;;
54993;SDS011;40891;47.242;8.648;2022-11-15T04:59:20;4.00;;;2.20;;
54993;SDS011;40891;47.242;8.648;2022-11-15T05:01:45;4.13;;;2.03;;
54993;SDS011;40891;47.242;8.648;2022-11-15T05:04:11;2.63;;;2.00;;
54993;SDS011;40891;47.242;8.648;2022-11-15T05:06:49;3.63;;;1.90;;
54993;SDS011;40891;47.242;8.648;2022-11-15T05:09:16;4.70;;;2.10;;
54993;SDS011;40891;47.242;8.648;2022-11-15T05:11:42;4.37;;;1.93;;
54993;SDS011;40891;47.242;8.648;2022-11-15T05:14:08;5.30;;;2.10;;
54993;SDS011;40891;47.242;8.648;2022-11-15T05:16:33;11.30;;;2.00;;
54993;SDS011;40891;47.242;8.648;2022-11-15T05:18:59;3.73;;;2.17;;
54993;SDS011;40891;47.242;8.648;2022-11-15T05:21:24;4.37;;;2.63;;
54993;SDS011;40891;47.242;8.648;2022-11-15T05:23:50;7.17;;;3.00;;
54993;SDS011;40891;47.242;8.648;2022-11-15T05:26:16;5.37;;;2.70;;
54993;SDS011;40891;47.242;8.648;2022-11-15T05:28:42;10.57;;;3.10;;
54993;SDS011;40891;47.242;8.648;2022-11-15T05:31:09;5.20;;;2.70;;
54993;SDS011;40891;47.242;8.648;2022-11-15T05:33:40;4.57;;;2.57;;
54993;SDS011;40891;47.242;8.648;2022-11-15T05:36:09;3.87;;;2.23;;
54993;SDS011;40891;47.242;8.648;2022-11-15T05:38:38;4.13;;;2.30;;
54993;SDS011;40891;47.242;8.648;2022-11-15T05:41:04;6.13;;;2.47;;
54993;SDS011;40891;47.242;8.648;2022-11-15T05:43:31;3.23;;;2.20;;
54993;SDS011;40891;47.242;8.648;2022-11-15T05:46:00;6.33;;;2.73;;
54993;SDS011;40891;47.242;8.648;2022-11-15T05:48:28;3.90;;;2.43;;
54993;SDS011;40891;47.242;8.648;2022-11-15T05:50:54;4.07;;;3.00;;
54993;SDS011;40891;47.242;8.648;2022-11-15T05:53:20;5.17;;;3.50;;
54993;SDS011;40891;47.242;8.648;2022-11-15T05:55:48;5.17;;;3.20;;
54993;SDS011;40891;47.242;8.648;2022-11-15T05:58:13;5.83;;;3.80;;
54993;SDS011;40891;47.242;8.648;2022-11-15T06:00:39;9.13;;;3.73;;
54993;SDS011;40891;47.242;8.648;2022-11-15T06:03:04;7.07;;;4.10;;
54993;SDS011;40891;47.242;8.648;2022-11-15T06:05:30;5.30;;;3.43;;
54993;SDS011;40891;47.242;8.648;2022-11-15T06:07:58;7.30;;;3.50;;
54993;SDS011;40891;47.242;8.648;2022-11-15T06:10:24;4.63;;;3.33;;
54993;SDS011;40891;47.242;8.648;2022-11-15T06:12:56;7.57;;;3.90;;
54993;SDS011;40891;47.242;8.648;2022-11-15T06:15:25;5.93;;;3.83;;
54993;SDS011;40891;47.242;8.648;2022-11-15T06:17:51;8.77;;;3.80;;
54993;SDS011;40891;47.242;8.648;2022-11-15T06:20:16;6.57;;;3.90;;
54993;SDS011;40891;47.242;8.648;2022-11-15T06:22:42;4.43;;;3.03;;
54993;SDS011;40891;47.242;8.648;2022-11-15T06:25:07;6.57;;;2.97;;
54993;SDS011;40891;47.242;8.648;2022-11-15T06:27:33;5.03;;;2.80;;
54993;SDS011;40891;47.242;8.648;2022-11-15T06:29:58;5.50;;;3.23;;
54993;SDS011;40891;47.242;8.648;2022-11-15T06:32:23;5.77;;;3.43;;
54993;SDS011;40891;47.242;8.648;2022-11-15T06:34:48;5.87;;;3.10;;
54993;SDS011;40891;47.242;8.648;2022-11-15T06:37:14;6.00;;;3.53;;
54993;SDS011;40891;47.242;8.648;2022-11-15T06:39:40;4.43;;;2.60;;
54993;SDS011;40891;47.242;8.648;2022-11-15T06:42:05;7.83;;;2.97;;
54993;SDS011;40891;47.242;8.648;2022-11-15T06:44:30;12.73;;;9.23;;
54993;SDS011;40891;47.242;8.648;2022-11-15T06:46:56;7.30;;;4.50;;
54993;SDS011;40891;47.242;8.648;2022-11-15T06:49:21;8.53;;;4.20;;
54993;SDS011;40891;47.242;8.648;2022-11-15T06:51:46;10.90;;;4.93;;
54993;SDS011;40891;47.242;8.648;2022-11-15T06:54:11;11.30;;;4.93;;
54993;SDS011;40891;47.242;8.648;2022-11-15T06:56:37;6.23;;;4.00;;
54993;SDS011;40891;47.242;8.648;2022-11-15T06:59:02;7.00;;;4.07;;
54993;SDS011;40891;47.242;8.648;2022-11-15T07:01:28;6.70;;;3.30;;
54993;SDS011;40891;47.242;8.648;2022-11-15T07:03:53;5.50;;;3.17;;
54993;SDS011;40891;47.242;8.648;2022-11-15T07:06:18;6.20;;;3.30;;
54993;SDS011;40891;47.242;8.648;2022-11-15T07:08:44;8.73;;;3.40;;
54993;SDS011;40891;47.242;8.648;2022-11-15T07:11:10;8.20;;;3.80;;
54993;SDS011;40891;47.242;8.648;2022-11-15T07:13:36;6.57;;;3.03;;
54993;SDS011;40891;47.242;8.648;2022-11-15T07:16:02;4.73;;;2.77;;
54993;SDS011;40891;47.242;8.648;2022-11-15T07:18:29;3.27;;;2.33;;
54993;SDS011;40891;47.242;8.648;2022-11-15T07:20:54;7.20;;;2.47;;
54993;SDS011;40891;47.242;8.648;2022-11-15T07:23:20;5.73;;;2.20;;
54993;SDS011;40891;47.242;8.648;2022-11-15T07:25:45;2.27;;;1.70;;
54993;SDS011;40891;47.242;8.648;2022-11-15T07:28:11;2.67;;;1.87;;
54993;SDS011;40891;47.242;8.648;2022-11-15T07:30:36;2.77;;;1.90;;
54993;SDS011;40891;47.242;8.648;2022-11-15T07:33:01;3.70;;;1.90;;
54993;SDS011;40891;47.242;8.648;2022-11-15T07:35:27;3.27;;;2.27;;
54993;SDS011;40891;47.242;8.648;2022-11-15T07:37:57;10.10;;;3.40;;
54993;SDS011;40891;47.242;8.648;2022-11-15T07:40:27;6.53;;;2.90;;
54993;SDS011;40891;47.242;8.648;2022-11-15T07:43:01;6.37;;;2.90;;
54993;SDS011;40891;47.242;8.648;2022-11-15T07:45:28;6.57;;;2.43;;
54993;SDS011;40891;47.242;8.648;2022-11-15T07:47:54;16.27;;;4.83;;
54993;SDS011;40891;47.242;8.648;2022-11-15T07:50:21;5.50;;;2.63;;
54993;SDS011;40891;47.242;8.648;2022-11-15T07:52:52;4.73;;;2.07;;
54993;SDS011;40891;47.242;8.648;2022-11-15T07:55:19;8.63;;;2.20;;
54993;SDS011;40891;47.242;8.648;2022-11-15T07:57:44;8.83;;;2.23;;
54993;SDS011;40891;47.242;8.648;2022-11-15T08:00:09;7.97;;;2.40;;
54993;SDS011;40891;47.242;8.648;2022-11-15T08:02:35;6.70;;;1.80;;
54993;SDS011;40891;47.242;8.648;2022-11-15T08:05:00;9.63;;;2.90;;
54993;SDS011;40891;47.242;8.648;2022-11-15T08:07:28;2.50;;;1.42;;
54993;SDS011;40891;47.242;8.648;2022-11-15T08:09:55;3.58;;;1.50;;
54993;SDS011;40891;47.242;8.648;2022-11-15T08:12:21;2.97;;;1.65;;
54993;SDS011;40891;47.242;8.648;2022-11-15T08:14:46;3.45;;;1.52;;
54993;SDS011;40891;47.242;8.648;2022-11-15T08:17:11;3.03;;;1.70;;
54993;SDS011;40891;47.242;8.648;2022-11-15T08:19:37;4.50;;;1.83;;
54993;SDS011;40891;47.242;8.648;2022-11-15T08:22:02;4.28;;;1.92;;
54993;SDS011;40891;47.242;8.648;2022-11-15T08:24:27;3.67;;;1.77;;
54993;SDS011;40891;47.242;8.648;2022-11-15T08:26:53;4.40;;;1.90;;
54993;SDS011;40891;47.242;8.648;2022-11-15T08:29:18;4.82;;;1.90;;
54993;SDS011;40891;47.242;8.648;2022-11-15T08:31:43;3.40;;;1.60;;
54993;SDS011;40891;47.242;8.648;2022-11-15T08:34:09;2.85;;;1.80;;
54993;SDS011;40891;47.242;8.648;2022-11-15T08:36:34;4.47;;;2.33;;
54993;SDS011;40891;47.242;8.648;2022-11-15T08:38:59;5.18;;;2.50;;
54993;SDS011;40891;47.242;8.648;2022-11-15T08:41:30;5.93;;;2.33;;
54993;SDS011;40891;47.242;8.648;2022-11-15T08:43:58;4.90;;;2.20;;
54993;SDS011;40891;47.242;8.648;2022-11-15T08:46:23;5.07;;;2.20;;
54993;SDS011;40891;47.242;8.648;2022-11-15T08:48:48;5.38;;;2.75;;
54993;SDS011;40891;47.242;8.648;2022-11-15T08:51:14;2.85;;;2.00;;
54993;SDS011;40891;47.242;8.648;2022-11-15T08:53:41;4.55;;;2.60;;
54993;SDS011;40891;47.242;8.648;2022-11-15T08:56:08;4.93;;;2.38;;
54993;SDS011;40891;47.242;8.648;2022-11-15T08:58:34;3.03;;;2.20;;
54993;SDS011;40891;47.242;8.648;2022-11-15T09:01:00;3.00;;;1.88;;
54993;SDS011;40891;47.242;8.648;2022-11-15T09:03:25;4.68;;;2.35;;
54993;SDS011;40891;47.242;8.648;2022-11-15T09:05:59;6.20;;;2.58;;
54993;SDS011;40891;47.242;8.648;2022-11-15T09:08:29;4.22;;;2.42;;
54993;SDS011;40891;47.242;8.648;2022-11-15T09:10:55;6.25;;;2.05;;
54993;SDS011;40891;47.242;8.648;2022-11-15T09:13:21;3.75;;;2.25;;
54993;SDS011;40891;47.242;8.648;2022-11-15T09:15:47;3.95;;;2.20;;
54993;SDS011;40891;47.242;8.648;2022-11-15T09:18:12;5.95;;;2.45;;
54993;SDS011;40891;47.242;8.648;2022-11-15T09:20:37;4.15;;;2.13;;
54993;SDS011;40891;47.242;8.648;2022-11-15T09:23:03;3.13;;;2.30;;
54993;SDS011;40891;47.242;8.648;2022-11-15T09:25:30;5.07;;;2.40;;
54993;SDS011;40891;47.242;8.648;2022-11-15T09:27:55;3.08;;;2.08;;
54993;SDS011;40891;47.242;8.648;2022-11-15T09:30:21;5.82;;;2.50;;
54993;SDS011;40891;47.242;8.648;2022-11-15T09:32:47;4.35;;;2.60;;
54993;SDS011;40891;47.242;8.648;2022-11-15T09:35:12;4.85;;;2.55;;
54993;SDS011;40891;47.242;8.648;2022-11-15T09:37:38;5.18;;;2.90;;
54993;SDS011;40891;47.242;8.648;2022-11-15T09:40:03;3.92;;;2.65;;
54993;SDS011;40891;47.242;8.648;2022-11-15T09:50:42;5.03;;;2.55;;
54993;SDS011;40891;47.242;8.648;2022-11-15T09:53:13;4.90;;;2.60;;
54993;SDS011;40891;47.242;8.648;2022-11-15T09:55:53;5.43;;;2.63;;
54993;SDS011;40891;47.242;8.648;2022-11-15T09:58:39;3.53;;;2.50;;
54993;SDS011;40891;47.242;8.648;2022-11-15T10:01:18;5.03;;;2.83;;
54993;SDS011;40891;47.242;8.648;2022-11-15T10:03:54;5.85;;;2.45;;
54993;SDS011;40891;47.242;8.648;2022-11-15T10:06:23;7.55;;;2.70;;
54993;SDS011;40891;47.242;8.648;2022-11-15T10:09:09;6.95;;;2.78;;
54993;SDS011;40891;47.242;8.648;2022-11-15T10:11:40;3.60;;;2.33;;
54993;SDS011;40891;47.242;8.648;2022-11-15T10:22:14;7.75;;;2.17;;
54993;SDS011;40891;47.242;8.648;2022-11-15T10:24:46;4.18;;;2.50;;
54993;SDS011;40891;47.242;8.648;2022-11-15T10:27:17;3.65;;;2.40;;
54993;SDS011;40891;47.242;8.648;2022-11-15T10:29:47;4.53;;;2.45;;
54993;SDS011;40891;47.242;8.648;2022-11-15T10:32:15;3.75;;;2.50;;
54993;SDS011;40891;47.242;8.648;2022-11-15T10:34:42;5.40;;;2.53;;
54993;SDS011;40891;47.242;8.648;2022-11-15T10:37:08;5.90;;;2.72;;
54993;SDS011;40891;47.242;8.648;2022-11-15T10:39:34;10.88;;;2.97;;
54993;SDS011;40891;47.242;8.648;2022-11-15T10:42:14;5.90;;;2.78;;
54993;SDS011;40891;47.242;8.648;2022-11-15T10:44:50;6.05;;;2.50;;
54993;SDS011;40891;47.242;8.648;2022-11-15T10:47:23;8.02;;;2.63;;
54993;SDS011;40891;47.242;8.648;2022-11-15T10:50:00;5.95;;;2.70;;
54993;SDS011;40891;47.242;8.648;2022-11-15T10:52:29;4.47;;;2.72;;
54993;SDS011;40891;47.242;8.648;2022-11-15T10:54:58;5.53;;;2.80;;
54993;SDS011;40891;47.242;8.648;2022-11-15T10:57:38;4.03;;;2.80;;
54993;SDS011;40891;47.242;8.648;2022-11-15T11:03:05;6.32;;;2.60;;
54993;SDS011;40891;47.242;8.648;2022-11-15T11:05:47;6.57;;;4.03;;
54993;SDS011;40891;47.242;8.648;2022-11-15T11:10:38;6.88;;;2.95;;
54993;SDS011;40891;47.242;8.648;2022-11-15T11:21:11;8.55;;;2.47;;
54993;SDS011;40891;47.242;8.648;2022-11-15T11:23:53;6.85;;;2.50;;
54993;SDS011;40891;47.242;8.648;2022-11-15T11:26:32;5.82;;;2.50;;
54993;SDS011;40891;47.242;8.648;2022-11-15T11:45:58;4.90;;;2.53;;
54993;SDS011;40891;47.242;8.648;2022-11-15T11:48:52;6.18;;;2.40;;
54993;SDS011;40891;47.242;8.648;2022-11-15T11:51:36;3.50;;;2.25;;
54993;SDS011;40891;47.242;8.648;2022-11-15T11:57:15;3.13;;;2.30;;
54993;SDS011;40891;47.242;8.648;2022-11-15T12:00:04;5.45;;;2.42;;
54993;SDS011;40891;47.242;8.648;2022-11-15T12:02:41;4.63;;;2.50;;
54993;SDS011;40891;47.242;8.648;2022-11-15T12:05:18;4.30;;;2.30;;
54993;SDS011;40891;47.242;8.648;2022-11-15T12:07:52;4.90;;;2.63;;
54993;SDS011;40891;47.242;8.648;2022-11-15T12:10:23;6.63;;;3.17;;
54993;SDS011;40891;47.242;8.648;2022-11-15T12:12:54;5.72;;;2.83;;
54993;SDS011;40891;47.242;8.648;2022-11-15T12:15:38;6.67;;;2.60;;
54993;SDS011;40891;47.242;8.648;2022-11-15T12:18:11;4.57;;;2.83;;
54993;SDS011;40891;47.242;8.648;2022-11-15T12:20:40;6.03;;;3.37;;
54993;SDS011;40891;47.242;8.648;2022-11-15T12:23:26;5.60;;;3.17;;
54993;SDS011;40891;47.242;8.648;2022-11-15T12:26:06;4.57;;;2.97;;
54993;SDS011;40891;47.242;8.648;2022-11-15T12:31:23;5.50;;;3.23;;
54993;SDS011;40891;47.242;8.648;2022-11-15T12:33:55;5.40;;;3.20;;
54993;SDS011;40891;47.242;8.648;2022-11-15T12:38:57;6.07;;;2.90;;
54993;SDS011;40891;47.242;8.648;2022-11-15T12:41:40;3.90;;;2.90;;
54993;SDS011;40891;47.242;8.648;2022-11-15T12:44:12;4.83;;;2.67;;
54993;SDS011;40891;47.242;8.648;2022-11-15T13:02:26;8.07;;;2.70;;
54993;SDS011;40891;47.242;8.648;2022-11-15T13:04:55;4.43;;;2.80;;
54993;SDS011;40891;47.242;8.648;2022-11-15T13:13:09;5.50;;;2.70;;
54993;SDS011;40891;47.242;8.648;2022-11-15T13:15:35;4.07;;;2.13;;
54993;SDS011;40891;47.242;8.648;2022-11-15T13:18:25;4.20;;;2.87;;
54993;SDS011;40891;47.242;8.648;2022-11-15T13:20:53;4.87;;;2.87;;
54993;SDS011;40891;47.242;8.648;2022-11-15T13:23:18;5.33;;;3.00;;
54993;SDS011;40891;47.242;8.648;2022-11-15T13:28:36;5.80;;;2.47;;
54993;SDS011;40891;47.242;8.648;2022-11-15T13:31:03;7.23;;;2.80;;
54993;SDS011;40891;47.242;8.648;2022-11-15T13:33:44;7.00;;;3.13;;
54993;SDS011;40891;47.242;8.648;2022-11-15T13:36:13;3.67;;;2.43;;
54993;SDS011;40891;47.242;8.648;2022-11-15T13:38:44;5.90;;;2.50;;
54993;SDS011;40891;47.242;8.648;2022-11-15T13:41:11;7.10;;;2.83;;
54993;SDS011;40891;47.242;8.648;2022-11-15T13:43:43;4.87;;;2.63;;
54993;SDS011;40891;47.242;8.648;2022-11-15T13:46:13;5.33;;;2.47;;
54993;SDS011;40891;47.242;8.648;2022-11-15T13:48:41;3.77;;;2.43;;
54993;SDS011;40891;47.242;8.648;2022-11-15T13:51:16;4.00;;;2.90;;
54993;SDS011;40891;47.242;8.648;2022-11-15T13:53:53;4.63;;;2.73;;
54993;SDS011;40891;47.242;8.648;2022-11-15T13:56:23;6.47;;;2.97;;
54993;SDS011;40891;47.242;8.648;2022-11-15T13:58:50;5.17;;;2.60;;
54993;SDS011;40891;47.242;8.648;2022-11-15T14:01:18;4.60;;;2.70;;
54993;SDS011;40891;47.242;8.648;2022-11-15T14:03:47;3.73;;;2.80;;
54993;SDS011;40891;47.242;8.648;2022-11-15T14:06:22;9.50;;;3.03;;
54993;SDS011;40891;47.242;8.648;2022-11-15T14:11:24;4.53;;;2.53;;
54993;SDS011;40891;47.242;8.648;2022-11-15T14:14:01;4.43;;;2.30;;
54993;SDS011;40891;47.242;8.648;2022-11-15T14:16:37;7.03;;;2.90;;
54993;SDS011;40891;47.242;8.648;2022-11-15T14:19:04;5.03;;;2.70;;
54993;SDS011;40891;47.242;8.648;2022-11-15T14:21:31;2.93;;;2.27;;
54993;SDS011;40891;47.242;8.648;2022-11-15T14:24:13;7.90;;;2.80;;
54993;SDS011;40891;47.242;8.648;2022-11-15T14:26:43;6.07;;;2.60;;
54993;SDS011;40891;47.242;8.648;2022-11-15T14:29:28;7.63;;;2.53;;
54993;SDS011;40891;47.242;8.648;2022-11-15T14:34:38;3.33;;;2.63;;
54993;SDS011;40891;47.242;8.648;2022-11-15T14:37:03;6.63;;;2.87;;
54993;SDS011;40891;47.242;8.648;2022-11-15T14:39:29;3.77;;;2.27;;
54993;SDS011;40891;47.242;8.648;2022-11-15T14:41:55;5.70;;;3.17;;
54993;SDS011;40891;47.242;8.648;2022-11-15T14:44:20;4.97;;;2.60;;
54993;SDS011;40891;47.242;8.648;2022-11-15T14:46:46;4.77;;;2.87;;
54993;SDS011;40891;47.242;8.648;2022-11-15T14:49:13;7.00;;;3.17;;
54993;SDS011;40891;47.242;8.648;2022-11-15T14:51:39;6.43;;;3.10;;
54993;SDS011;40891;47.242;8.648;2022-11-15T14:54:04;4.70;;;3.00;;
54993;SDS011;40891;47.242;8.648;2022-11-15T14:56:30;8.07;;;3.00;;
54993;SDS011;40891;47.242;8.648;2022-11-15T14:58:55;4.33;;;2.87;;
54993;SDS011;40891;47.242;8.648;2022-11-15T15:01:22;4.07;;;2.33;;
54993;SDS011;40891;47.242;8.648;2022-11-15T15:03:49;6.00;;;2.47;;
54993;SDS011;40891;47.242;8.648;2022-11-15T15:06:17;7.00;;;2.70;;
54993;SDS011;40891;47.242;8.648;2022-11-15T15:08:43;3.33;;;2.50;;
54993;SDS011;40891;47.242;8.648;2022-11-15T15:11:18;4.57;;;2.37;;
54993;SDS011;40891;47.242;8.648;2022-11-15T15:13:45;6.97;;;2.50;;
54993;SDS011;40891;47.242;8.648;2022-11-15T15:16:10;3.10;;;2.27;;
54993;SDS011;40891;47.242;8.648;2022-11-15T15:18:35;4.93;;;2.30;;
54993;SDS011;40891;47.242;8.648;2022-11-15T15:21:01;5.13;;;2.50;;
54993;SDS011;40891;47.242;8.648;2022-11-15T15:23:32;4.97;;;2.40;;
54993;SDS011;40891;47.242;8.648;2022-11-15T15:25:58;3.60;;;2.10;;
54993;SDS011;40891;47.242;8.648;2022-11-15T15:28:23;2.50;;;1.83;;
54993;SDS011;40891;47.242;8.648;2022-11-15T15:30:49;5.17;;;2.33;;
54993;SDS011;40891;47.242;8.648;2022-11-15T15:33:14;6.23;;;2.40;;
54993;SDS011;40891;47.242;8.648;2022-11-15T15:35:40;3.27;;;2.60;;
54993;SDS011;40891;47.242;8.648;2022-11-15T15:38:05;6.23;;;2.47;;
54993;SDS011;40891;47.242;8.648;2022-11-15T15:40:32;8.73;;;2.07;;
54993;SDS011;40891;47.242;8.648;2022-11-15T15:42:58;5.17;;;2.60;;
54993;SDS011;40891;47.242;8.648;2022-11-15T15:45:24;7.53;;;2.40;;
54993;SDS011;40891;47.242;8.648;2022-11-15T15:47:50;5.27;;;2.63;;
54993;SDS011;40891;47.242;8.648;2022-11-15T15:50:22;6.63;;;2.20;;
54993;SDS011;40891;47.242;8.648;2022-11-15T15:52:49;5.00;;;2.90;;
54993;SDS011;40891;47.242;8.648;2022-11-15T15:55:16;7.53;;;3.10;;
54993;SDS011;40891;47.242;8.648;2022-11-15T15:57:41;5.07;;;3.27;;
54993;SDS011;40891;47.242;8.648;2022-11-15T16:00:07;6.93;;;3.60;;
54993;SDS011;40891;47.242;8.648;2022-11-15T16:02:33;5.67;;;3.27;;
54993;SDS011;40891;47.242;8.648;2022-11-15T16:04:59;5.37;;;3.00;;
54993;SDS011;40891;47.242;8.648;2022-11-15T16:07:24;4.50;;;2.70;;
54993;SDS011;40891;47.242;8.648;2022-11-15T16:09:50;9.20;;;2.80;;
54993;SDS011;40891;47.242;8.648;2022-11-15T16:12:24;8.03;;;3.00;;
54993;SDS011;40891;47.242;8.648;2022-11-15T16:14:50;7.70;;;3.00;;
54993;SDS011;40891;47.242;8.648;2022-11-15T16:17:17;7.77;;;2.90;;
54993;SDS011;40891;47.242;8.648;2022-11-15T16:19:44;9.00;;;3.17;;
54993;SDS011;40891;47.242;8.648;2022-11-15T16:22:10;4.93;;;2.60;;
54993;SDS011;40891;47.242;8.648;2022-11-15T16:24:35;5.33;;;3.30;;
54993;SDS011;40891;47.242;8.648;2022-11-15T16:27:00;8.70;;;3.33;;
54993;SDS011;40891;47.242;8.648;2022-11-15T16:29:26;5.70;;;3.60;;
54993;SDS011;40891;47.242;8.648;2022-11-15T16:31:51;6.53;;;2.97;;
54993;SDS011;40891;47.242;8.648;2022-11-15T16:34:16;5.40;;;2.30;;
54993;SDS011;40891;47.242;8.648;2022-11-15T16:36:42;5.67;;;2.37;;
54993;SDS011;40891;47.242;8.648;2022-11-15T16:39:10;7.50;;;2.97;;
54993;SDS011;40891;47.242;8.648;2022-11-15T16:41:38;5.17;;;2.60;;
54993;SDS011;40891;47.242;8.648;2022-11-15T16:44:03;3.97;;;2.87;;
54993;SDS011;40891;47.242;8.648;2022-11-15T16:46:29;5.67;;;3.00;;
54993;SDS011;40891;47.242;8.648;2022-11-15T16:48:55;6.50;;;2.53;;
54993;SDS011;40891;47.242;8.648;2022-11-15T16:51:21;6.07;;;3.10;;
54993;SDS011;40891;47.242;8.648;2022-11-15T16:53:47;5.33;;;2.70;;
54993;SDS011;40891;47.242;8.648;2022-11-15T16:58:52;8.27;;;2.50;;
54993;SDS011;40891;47.242;8.648;2022-11-15T17:03:51;7.93;;;2.90;;